EWG47U EDDL-LIPZ
Flight info
| Callsign | EWG47U |
|---|---|
| Flight time | 1h 4m |
| Altitude | 37000 |
| Route | DODEN7Z DODEN Y852 TUSUK DCT ULNOK L607 ABUKA DCT UTABA/N0384F290 M738 NATAG Y740 LORLO M738 ADOSA L612 ALBET |
| Aircraft | A320/M-SDE2E3FGIJ1RWXYZ/HB1 |
Departure
| Time | 2026-02-18 12:53 |
|---|---|
| Airport | Düsseldorf Airport (EDDL) |
Arrival
| Time | 2026-02-18 13:58 |
|---|---|
| Airport | Venice Marco Polo Airport (LIPZ) |
| Time | Latitude | Longitude | Altitude | Speed | Heading |
|---|---|---|---|---|---|
| 2026-02-18 12:24 | 51.28308 | 6.77025 | 131 ft | 0 kts | 143° |
| 2026-02-18 12:44 | 51.28310 | 6.77023 | 130 ft | 1 kts | 143° |
| 2026-02-18 12:44 | 51.28324 | 6.77006 | 126 ft | 3 kts | 143° |
| 2026-02-18 12:45 | 51.28339 | 6.76988 | 130 ft | 3 kts | 157° |
| 2026-02-18 12:45 | 51.28374 | 6.76997 | 124 ft | 3 kts | 225° |
| 2026-02-18 12:45 | 51.28383 | 6.77013 | 125 ft | 1 kts | 233° |
| 2026-02-18 12:47 | 51.28377 | 6.77000 | 125 ft | 7 kts | 232° |
| 2026-02-18 12:48 | 51.28346 | 6.76916 | 126 ft | 9 kts | 257° |
| 2026-02-18 12:48 | 51.28353 | 6.76785 | 127 ft | 12 kts | 280° |
| 2026-02-18 12:48 | 51.28400 | 6.76687 | 124 ft | 11 kts | 319° |
| 2026-02-18 12:48 | 51.28391 | 6.76571 | 124 ft | 16 kts | 233° |
| 2026-02-18 12:49 | 51.28301 | 6.76390 | 124 ft | 22 kts | 233° |
| 2026-02-18 12:49 | 51.28139 | 6.76042 | 127 ft | 17 kts | 233° |
| 2026-02-18 12:49 | 51.28070 | 6.75897 | 127 ft | 16 kts | 232° |
| 2026-02-18 12:50 | 51.28006 | 6.75764 | 126 ft | 15 kts | 232° |
| 2026-02-18 12:50 | 51.27948 | 6.75641 | 129 ft | 11 kts | 236° |
| 2026-02-18 12:50 | 51.27968 | 6.75546 | 129 ft | 8 kts | 332° |
| 2026-02-18 12:50 | 51.27988 | 6.75531 | 124 ft | 0 kts | 334° |
| 2026-02-18 12:51 | 51.27990 | 6.75530 | 124 ft | 3 kts | 334° |
| 2026-02-18 12:52 | 51.28043 | 6.75488 | 125 ft | 11 kts | 329° |
| 2026-02-18 12:52 | 51.28088 | 6.75471 | 127 ft | 5 kts | 33° |
| 2026-02-18 12:52 | 51.28098 | 6.75488 | 124 ft | 1 kts | 52° |
| 2026-02-18 12:52 | 51.28180 | 6.75660 | 127 ft | 53 kts | 53° |
| 2026-02-18 12:53 | 51.28551 | 6.76439 | 128 ft | 120 kts | 53° |
| 2026-02-18 12:53 | 51.29743 | 6.78970 | 1277 ft | 149 kts | 47° |
| 2026-02-18 12:53 | 51.30406 | 6.80371 | 1660 ft | 170 kts | 47° |
| 2026-02-18 12:54 | 51.31180 | 6.81976 | 1987 ft | 195 kts | 47° |
| 2026-02-18 12:54 | 51.32049 | 6.83778 | 2461 ft | 216 kts | 46° |
| 2026-02-18 12:54 | 51.33021 | 6.85797 | 2903 ft | 242 kts | 48° |
| 2026-02-18 12:54 | 51.34076 | 6.88070 | 3452 ft | 267 kts | 50° |
| 2026-02-18 12:55 | 51.35031 | 6.90693 | 4309 ft | 279 kts | 68° |
| 2026-02-18 12:55 | 51.35226 | 6.93827 | 5292 ft | 290 kts | 95° |
| 2026-02-18 12:55 | 51.34895 | 6.97030 | 6344 ft | 292 kts | 98° |
| 2026-02-18 12:55 | 51.34541 | 7.00253 | 7288 ft | 297 kts | 100° |
| 2026-02-18 12:56 | 51.33795 | 7.03348 | 8179 ft | 304 kts | 124° |
| 2026-02-18 12:56 | 51.32343 | 7.05801 | 9090 ft | 305 kts | 145° |
| 2026-02-18 12:56 | 51.30658 | 7.07880 | 10006 ft | 309 kts | 146° |
| 2026-02-18 12:56 | 51.28896 | 7.10027 | 10472 ft | 329 kts | 144° |
| 2026-02-18 12:57 | 51.25351 | 7.15140 | 11834 ft | 350 kts | 140° |
| 2026-02-18 12:57 | 51.23557 | 7.17785 | 12741 ft | 350 kts | 140° |
| 2026-02-18 12:57 | 51.21868 | 7.20286 | 14147 ft | 332 kts | 140° |
| 2026-02-18 12:58 | 51.20159 | 7.22812 | 15127 ft | 330 kts | 140° |
| 2026-02-18 12:58 | 51.18449 | 7.25204 | 15836 ft | 333 kts | 148° |
| 2026-02-18 12:58 | 51.16409 | 7.27064 | 16518 ft | 335 kts | 155° |
| 2026-02-18 12:58 | 51.14346 | 7.28797 | 17363 ft | 333 kts | 156° |
| 2026-02-18 12:59 | 51.12983 | 7.29935 | 17937 ft | 334 kts | 156° |
| 2026-02-18 12:59 | 51.10926 | 7.31645 | 18710 ft | 333 kts | 156° |
| 2026-02-18 12:59 | 51.08871 | 7.33358 | 19385 ft | 335 kts | 156° |
| 2026-02-18 12:59 | 51.06844 | 7.35099 | 19970 ft | 340 kts | 155° |
| 2026-02-18 13:00 | 51.04763 | 7.36931 | 20546 ft | 345 kts | 155° |
| 2026-02-18 13:00 | 51.02652 | 7.38808 | 21110 ft | 350 kts | 154° |
| 2026-02-18 13:00 | 51.00518 | 7.40710 | 21670 ft | 355 kts | 155° |
| 2026-02-18 13:00 | 50.98345 | 7.42640 | 22214 ft | 360 kts | 155° |
| 2026-02-18 13:01 | 50.93907 | 7.46552 | 23313 ft | 370 kts | 155° |
| 2026-02-18 13:01 | 50.91640 | 7.48537 | 23789 ft | 375 kts | 155° |
| 2026-02-18 13:01 | 50.89336 | 7.50549 | 24109 ft | 385 kts | 155° |
| 2026-02-18 13:02 | 50.86934 | 7.52639 | 24226 ft | 401 kts | 155° |
| 2026-02-18 13:02 | 50.84609 | 7.54661 | 24347 ft | 416 kts | 155° |
| 2026-02-18 13:02 | 50.82025 | 7.56913 | 24466 ft | 431 kts | 155° |
| 2026-02-18 13:02 | 50.79356 | 7.59240 | 24593 ft | 446 kts | 154° |
| 2026-02-18 13:03 | 50.76602 | 7.61640 | 24804 ft | 456 kts | 154° |
| 2026-02-18 13:03 | 50.73802 | 7.64079 | 25141 ft | 463 kts | 154° |
| 2026-02-18 13:03 | 50.70965 | 7.66549 | 25498 ft | 469 kts | 154° |
| 2026-02-18 13:03 | 50.68088 | 7.69043 | 25848 ft | 474 kts | 154° |
| 2026-02-18 13:04 | 50.65140 | 7.71591 | 26195 ft | 480 kts | 154° |
| 2026-02-18 13:04 | 50.62200 | 7.74133 | 26530 ft | 485 kts | 154° |
| 2026-02-18 13:04 | 50.59223 | 7.76706 | 26852 ft | 491 kts | 154° |
| 2026-02-18 13:04 | 50.56223 | 7.79296 | 27179 ft | 496 kts | 154° |
| 2026-02-18 13:05 | 50.50098 | 7.84567 | 27876 ft | 506 kts | 154° |
| 2026-02-18 13:05 | 50.46994 | 7.87224 | 28209 ft | 511 kts | 155° |
| 2026-02-18 13:05 | 50.43858 | 7.89891 | 28539 ft | 515 kts | 155° |
| 2026-02-18 13:06 | 50.40683 | 7.92576 | 28863 ft | 520 kts | 155° |
| 2026-02-18 13:06 | 50.37488 | 7.95272 | 29206 ft | 524 kts | 155° |
| 2026-02-18 13:06 | 50.34273 | 7.97984 | 29508 ft | 528 kts | 155° |
| 2026-02-18 13:06 | 50.31018 | 8.00726 | 29818 ft | 533 kts | 155° |
| 2026-02-18 13:07 | 50.27741 | 8.03486 | 30089 ft | 537 kts | 155° |
| 2026-02-18 13:07 | 50.24445 | 8.06264 | 30364 ft | 540 kts | 155° |
| 2026-02-18 13:07 | 50.21777 | 8.08513 | 30588 ft | 542 kts | 155° |
| 2026-02-18 13:07 | 50.18687 | 8.11120 | 30839 ft | 545 kts | 155° |
| 2026-02-18 13:08 | 50.15343 | 8.13933 | 31094 ft | 548 kts | 155° |
| 2026-02-18 13:08 | 50.11986 | 8.16773 | 31365 ft | 551 kts | 154° |
| 2026-02-18 13:08 | 50.08638 | 8.19713 | 31607 ft | 553 kts | 155° |
| 2026-02-18 13:08 | 50.05217 | 8.22230 | 31927 ft | 550 kts | 160° |
| 2026-02-18 13:09 | 49.98223 | 8.26995 | 32668 ft | 548 kts | 161° |
| 2026-02-18 13:09 | 49.94718 | 8.29325 | 33048 ft | 548 kts | 161° |
| 2026-02-18 13:09 | 49.91208 | 8.31649 | 33393 ft | 548 kts | 161° |
| 2026-02-18 13:10 | 49.87703 | 8.33983 | 33752 ft | 548 kts | 161° |
| 2026-02-18 13:10 | 49.84201 | 8.36331 | 34105 ft | 548 kts | 161° |
| 2026-02-18 13:10 | 49.80674 | 8.38721 | 34456 ft | 546 kts | 161° |
| 2026-02-18 13:10 | 49.77246 | 8.41087 | 34832 ft | 544 kts | 160° |
| 2026-02-18 13:11 | 49.73761 | 8.43518 | 35179 ft | 542 kts | 160° |
| 2026-02-18 13:11 | 49.70337 | 8.45905 | 35555 ft | 539 kts | 160° |
| 2026-02-18 13:11 | 49.66923 | 8.48270 | 35925 ft | 536 kts | 160° |
| 2026-02-18 13:11 | 49.63537 | 8.50603 | 36275 ft | 533 kts | 161° |
| 2026-02-18 13:12 | 49.60153 | 8.52922 | 36602 ft | 530 kts | 161° |
| 2026-02-18 13:12 | 49.56788 | 8.55219 | 36881 ft | 529 kts | 161° |
| 2026-02-18 13:12 | 49.50099 | 8.59781 | 36934 ft | 522 kts | 161° |
| 2026-02-18 13:13 | 49.40160 | 8.66538 | 36950 ft | 520 kts | 161° |
| 2026-02-18 13:14 | 49.33646 | 8.70946 | 36941 ft | 521 kts | 161° |
| 2026-02-18 13:14 | 49.27023 | 8.75418 | 36942 ft | 521 kts | 161° |
| 2026-02-18 13:15 | 49.20389 | 8.79888 | 36931 ft | 521 kts | 161° |
| 2026-02-18 13:15 | 49.13755 | 8.84344 | 36934 ft | 521 kts | 161° |
| 2026-02-18 13:16 | 49.07128 | 8.88791 | 36929 ft | 521 kts | 161° |
| 2026-02-18 13:16 | 49.00489 | 8.93232 | 36932 ft | 521 kts | 161° |
| 2026-02-18 13:17 | 48.93526 | 8.97856 | 36917 ft | 521 kts | 161° |
| 2026-02-18 13:17 | 48.88316 | 9.01336 | 36911 ft | 521 kts | 161° |
| 2026-02-18 13:18 | 48.81673 | 9.05728 | 36896 ft | 521 kts | 161° |
| 2026-02-18 13:18 | 48.76013 | 9.09457 | 36889 ft | 520 kts | 161° |
| 2026-02-18 13:19 | 48.69406 | 9.13809 | 36877 ft | 504 kts | 165° |
| 2026-02-18 13:19 | 48.66246 | 9.15905 | 36884 ft | 491 kts | 165° |
| 2026-02-18 13:19 | 48.63136 | 9.17960 | 36887 ft | 486 kts | 165° |
| 2026-02-18 13:20 | 48.60028 | 9.19993 | 36609 ft | 489 kts | 165° |
| 2026-02-18 13:20 | 48.56901 | 9.22008 | 35982 ft | 488 kts | 166° |
| 2026-02-18 13:20 | 48.50711 | 9.26011 | 36263 ft | 485 kts | 165° |
| 2026-02-18 13:21 | 48.44475 | 9.30093 | 36834 ft | 486 kts | 165° |
| 2026-02-18 13:21 | 48.41414 | 9.32096 | 36919 ft | 485 kts | 165° |
| 2026-02-18 13:22 | 48.35179 | 9.36154 | 36933 ft | 485 kts | 165° |
| 2026-02-18 13:22 | 48.28987 | 9.40163 | 36934 ft | 485 kts | 165° |
| 2026-02-18 13:23 | 48.22784 | 9.44152 | 36932 ft | 485 kts | 166° |
| 2026-02-18 13:23 | 48.16538 | 9.47909 | 36932 ft | 483 kts | 167° |
| 2026-02-18 13:24 | 48.10256 | 9.51522 | 36927 ft | 483 kts | 167° |
| 2026-02-18 13:24 | 48.03980 | 9.55173 | 36919 ft | 486 kts | 164° |
| 2026-02-18 13:25 | 47.95306 | 9.63550 | 36919 ft | 500 kts | 149° |
| 2026-02-18 13:25 | 47.90639 | 9.68609 | 36917 ft | 500 kts | 150° |
| 2026-02-18 13:26 | 47.88584 | 9.70705 | 36913 ft | 494 kts | 155° |
| 2026-02-18 13:27 | 47.82918 | 9.76487 | 36946 ft | 501 kts | 149° |
| 2026-02-18 13:27 | 47.77348 | 9.82730 | 36934 ft | 502 kts | 148° |
| 2026-02-18 13:28 | 47.71752 | 9.88932 | 36927 ft | 501 kts | 149° |
| 2026-02-18 13:28 | 47.66095 | 9.94969 | 36919 ft | 501 kts | 150° |
| 2026-02-18 13:29 | 47.57580 | 10.03937 | 36908 ft | 501 kts | 150° |
| 2026-02-18 13:30 | 47.51919 | 10.09952 | 36896 ft | 501 kts | 149° |
| 2026-02-18 13:30 | 47.46262 | 10.15951 | 36888 ft | 500 kts | 150° |
| 2026-02-18 13:31 | 47.40588 | 10.21727 | 36874 ft | 498 kts | 153° |
| 2026-02-18 13:31 | 47.34664 | 10.27084 | 36876 ft | 496 kts | 155° |
| 2026-02-18 13:32 | 47.28726 | 10.32262 | 36870 ft | 495 kts | 155° |
| 2026-02-18 13:32 | 47.22835 | 10.37484 | 36866 ft | 495 kts | 155° |
| 2026-02-18 13:33 | 47.15024 | 10.44532 | 36877 ft | 494 kts | 154° |
| 2026-02-18 13:33 | 47.09169 | 10.49785 | 36888 ft | 492 kts | 157° |
| 2026-02-18 13:34 | 47.02969 | 10.53501 | 36885 ft | 474 kts | 174° |
| 2026-02-18 13:34 | 46.96572 | 10.55368 | 36893 ft | 466 kts | 179° |
| 2026-02-18 13:35 | 46.90180 | 10.57140 | 36884 ft | 469 kts | 176° |
| 2026-02-18 13:35 | 46.86967 | 10.58235 | 36653 ft | 477 kts | 174° |
| 2026-02-18 13:35 | 46.83704 | 10.59469 | 36375 ft | 478 kts | 173° |
| 2026-02-18 13:36 | 46.80506 | 10.60749 | 36111 ft | 478 kts | 173° |
| 2026-02-18 13:36 | 46.77305 | 10.62048 | 35841 ft | 477 kts | 173° |
| 2026-02-18 13:36 | 46.74108 | 10.63329 | 35585 ft | 476 kts | 173° |
| 2026-02-18 13:36 | 46.70923 | 10.64572 | 35325 ft | 473 kts | 174° |
| 2026-02-18 13:37 | 46.64568 | 10.66967 | 34799 ft | 470 kts | 174° |
| 2026-02-18 13:37 | 46.61400 | 10.68144 | 34547 ft | 469 kts | 174° |
| 2026-02-18 13:37 | 46.58241 | 10.69319 | 34294 ft | 468 kts | 174° |
| 2026-02-18 13:38 | 46.55092 | 10.70493 | 33861 ft | 467 kts | 175° |
| 2026-02-18 13:38 | 46.51953 | 10.71666 | 33304 ft | 463 kts | 174° |
| 2026-02-18 13:38 | 46.48853 | 10.72831 | 32827 ft | 459 kts | 174° |
| 2026-02-18 13:38 | 46.45772 | 10.73986 | 32305 ft | 455 kts | 174° |
| 2026-02-18 13:39 | 46.42723 | 10.75126 | 31814 ft | 450 kts | 174° |
| 2026-02-18 13:39 | 46.39710 | 10.76250 | 31351 ft | 444 kts | 174° |
| 2026-02-18 13:39 | 46.36731 | 10.77358 | 30881 ft | 441 kts | 174° |
| 2026-02-18 13:39 | 46.33771 | 10.78459 | 30399 ft | 438 kts | 173° |
| 2026-02-18 13:40 | 46.30830 | 10.79554 | 29950 ft | 435 kts | 173° |
| 2026-02-18 13:40 | 46.27905 | 10.80643 | 29466 ft | 432 kts | 173° |
| 2026-02-18 13:40 | 46.25014 | 10.81722 | 29042 ft | 427 kts | 173° |
| 2026-02-18 13:40 | 46.22147 | 10.82790 | 28614 ft | 423 kts | 173° |
| 2026-02-18 13:41 | 46.16614 | 10.86162 | 27434 ft | 461 kts | 153° |
| 2026-02-18 13:41 | 46.13803 | 10.88670 | 26874 ft | 484 kts | 153° |
| 2026-02-18 13:41 | 46.10929 | 10.91246 | 26287 ft | 488 kts | 152° |
| 2026-02-18 13:42 | 46.08064 | 10.93833 | 25726 ft | 485 kts | 152° |
| 2026-02-18 13:42 | 46.05180 | 10.96444 | 25115 ft | 480 kts | 152° |
| 2026-02-18 13:42 | 46.02359 | 10.98993 | 24873 ft | 477 kts | 152° |
| 2026-02-18 13:42 | 45.99557 | 11.01513 | 24678 ft | 472 kts | 153° |
| 2026-02-18 13:43 | 45.96781 | 11.03999 | 24070 ft | 468 kts | 153° |
| 2026-02-18 13:43 | 45.94030 | 11.06455 | 23472 ft | 463 kts | 153° |
| 2026-02-18 13:43 | 45.91308 | 11.08878 | 22809 ft | 458 kts | 153° |
| 2026-02-18 13:43 | 45.88609 | 11.11280 | 22219 ft | 454 kts | 152° |
| 2026-02-18 13:44 | 45.85935 | 11.13647 | 21623 ft | 450 kts | 153° |
| 2026-02-18 13:44 | 45.83275 | 11.15962 | 21055 ft | 445 kts | 153° |
| 2026-02-18 13:44 | 45.80635 | 11.18232 | 20474 ft | 441 kts | 153° |
| 2026-02-18 13:44 | 45.78096 | 11.20405 | 19927 ft | 438 kts | 153° |
| 2026-02-18 13:45 | 45.72913 | 11.24842 | 18912 ft | 431 kts | 152° |
| 2026-02-18 13:45 | 45.70427 | 11.27201 | 18418 ft | 430 kts | 140° |
| 2026-02-18 13:45 | 45.68488 | 11.30461 | 17509 ft | 437 kts | 123° |
| 2026-02-18 13:46 | 45.66788 | 11.34099 | 16606 ft | 441 kts | 126° |
| 2026-02-18 13:46 | 45.64988 | 11.37626 | 15956 ft | 437 kts | 127° |
| 2026-02-18 13:46 | 45.63175 | 11.41092 | 15400 ft | 432 kts | 128° |
| 2026-02-18 13:46 | 45.61362 | 11.44490 | 14841 ft | 428 kts | 128° |
| 2026-02-18 13:47 | 45.59552 | 11.47833 | 14282 ft | 423 kts | 129° |
| 2026-02-18 13:47 | 45.57758 | 11.51125 | 13711 ft | 416 kts | 129° |
| 2026-02-18 13:47 | 45.55988 | 11.54366 | 12882 ft | 413 kts | 129° |
| 2026-02-18 13:47 | 45.54232 | 11.57580 | 12297 ft | 407 kts | 129° |
| 2026-02-18 13:48 | 45.52504 | 11.60741 | 11682 ft | 402 kts | 130° |
| 2026-02-18 13:48 | 45.50796 | 11.63866 | 11092 ft | 396 kts | 130° |
| 2026-02-18 13:48 | 45.49119 | 11.66948 | 10450 ft | 392 kts | 130° |
| 2026-02-18 13:48 | 45.47461 | 11.70016 | 9821 ft | 388 kts | 130° |
| 2026-02-18 13:49 | 45.44242 | 11.76049 | 8539 ft | 377 kts | 129° |
| 2026-02-18 13:49 | 45.42668 | 11.79008 | 7853 ft | 372 kts | 129° |
| 2026-02-18 13:49 | 45.41260 | 11.81634 | 7308 ft | 366 kts | 130° |
| 2026-02-18 13:50 | 45.39815 | 11.84304 | 6742 ft | 361 kts | 130° |
| 2026-02-18 13:50 | 45.38284 | 11.87109 | 6042 ft | 357 kts | 130° |
| 2026-02-18 13:50 | 45.36764 | 11.89867 | 5398 ft | 351 kts | 130° |
| 2026-02-18 13:50 | 45.35275 | 11.92557 | 4985 ft | 327 kts | 130° |
| 2026-02-18 13:51 | 45.33948 | 11.94962 | 4534 ft | 296 kts | 129° |
| 2026-02-18 13:51 | 45.32705 | 11.97217 | 4350 ft | 284 kts | 129° |
| 2026-02-18 13:51 | 45.31513 | 11.99381 | 4149 ft | 272 kts | 129° |
| 2026-02-18 13:51 | 45.30581 | 12.01666 | 3952 ft | 264 kts | 111° |
| 2026-02-18 13:52 | 45.30192 | 12.04154 | 3816 ft | 254 kts | 95° |
| 2026-02-18 13:52 | 45.30292 | 12.06605 | 3673 ft | 245 kts | 79° |
| 2026-02-18 13:52 | 45.30814 | 12.08880 | 3511 ft | 242 kts | 64° |
| 2026-02-18 13:52 | 45.31699 | 12.10895 | 3378 ft | 238 kts | 51° |
| 2026-02-18 13:53 | 45.33998 | 12.14043 | 3233 ft | 225 kts | 42° |
| 2026-02-18 13:53 | 45.36272 | 12.16943 | 2996 ft | 218 kts | 43° |
| 2026-02-18 13:54 | 45.37365 | 12.18341 | 2987 ft | 205 kts | 43° |
| 2026-02-18 13:54 | 45.38393 | 12.19657 | 2929 ft | 193 kts | 43° |
| 2026-02-18 13:54 | 45.39370 | 12.20908 | 2735 ft | 186 kts | 43° |
| 2026-02-18 13:55 | 45.41271 | 12.23331 | 2236 ft | 181 kts | 44° |
| 2026-02-18 13:55 | 45.42187 | 12.24506 | 1962 ft | 172 kts | 44° |
| 2026-02-18 13:55 | 45.43046 | 12.25603 | 1768 ft | 157 kts | 44° |
| 2026-02-18 13:55 | 45.43824 | 12.26603 | 1561 ft | 145 kts | 45° |
| 2026-02-18 13:56 | 45.44557 | 12.27537 | 1348 ft | 138 kts | 43° |
| 2026-02-18 13:56 | 45.45257 | 12.28435 | 1125 ft | 135 kts | 44° |
| 2026-02-18 13:56 | 45.45935 | 12.29306 | 943 ft | 129 kts | 43° |
| 2026-02-18 13:56 | 45.46616 | 12.30175 | 790 ft | 134 kts | 44° |
| 2026-02-18 13:57 | 45.47998 | 12.31940 | 426 ft | 132 kts | 44° |
| 2026-02-18 13:57 | 45.48670 | 12.32814 | 241 ft | 130 kts | 44° |
| 2026-02-18 13:57 | 45.49347 | 12.33684 | 70 ft | 131 kts | 44° |
| 2026-02-18 13:58 | 45.49974 | 12.34498 | 16 ft | 105 kts | 41° |
| 2026-02-18 13:58 | 45.50371 | 12.35005 | 13 ft | 33 kts | 41° |
| 2026-02-18 13:58 | 45.50500 | 12.35062 | 14 ft | 19 kts | 10° |
| 2026-02-18 13:58 | 45.50595 | 12.35065 | 16 ft | 11 kts | 324° |
| 2026-02-18 13:59 | 45.50614 | 12.34964 | 15 ft | 10 kts | 268° |
| 2026-02-18 13:59 | 45.50612 | 12.34869 | 15 ft | 9 kts | 269° |
| 2026-02-18 13:59 | 45.50609 | 12.34749 | 16 ft | 18 kts | 266° |
| 2026-02-18 13:59 | 45.50601 | 12.34550 | 16 ft | 21 kts | 268° |
| 2026-02-18 14:00 | 45.50585 | 12.34410 | 18 ft | 10 kts | 232° |
| 2026-02-18 14:00 | 45.50546 | 12.34358 | 16 ft | 6 kts | 221° |
| 2026-02-18 14:00 | 45.50511 | 12.34333 | 16 ft | 5 kts | 210° |
| 2026-02-18 14:00 | 45.50493 | 12.34278 | 16 ft | 7 kts | 265° |
| 2026-02-18 14:01 | 45.50491 | 12.34211 | 16 ft | 0 kts | 268° |